Погода Шавантисна неделю

Сан-Паулу, Бразилия

19 - 25 июля
  • 19июля
    Сегодня
    +15°
    +27°
    Ясно и безоблачно
    ВремяПогодаТемператураВлажностьДавлениеВетер, м/сВероятность осадков
    00:00Ясно и безоблачно+19°C72 %723 мм3.3 м/с5 %
    03:00Практически безоблачно+17°C94 %722 мм4.2 м/с5 %
    06:00Пасмурно, сплошная облачность+16°C98 %723 мм3.4 м/с5 %
    09:00Ясно и безоблачно+18°C86 %725 мм2.9 м/с5 %
    12:00Ясно и безоблачно+24°C60 %725 мм3.3 м/с5 %
    15:00Ясно и безоблачно+26°C47 %724 мм2.0 м/с5 %
    18:00Ясно и безоблачно+22°C71 %723 мм1.9 м/с5 %
    21:00Ясно и безоблачно+20°C80 %723 мм2.4 м/с5 %
  • 20июля
    Суббота
    +13°
    +27°
    Ясно и безоблачно
    ВремяПогодаТемператураВлажностьДавлениеВетер, м/сВероятность осадков
    00:00Ясно и безоблачно+17°C84 %724 мм2.4 м/с5 %
    03:00Ясно и безоблачно+16°C88 %722 мм2.9 м/с5 %
    06:00Ясно и безоблачно+16°C92 %722 мм3.0 м/с5 %
    09:00Ясно и безоблачно+18°C77 %724 мм3.1 м/с5 %
    12:00Ясно и безоблачно+23°C49 %724 мм3.1 м/с5 %
    15:00Ясно и безоблачно+26°C36 %722 мм1.9 м/с5 %
    18:00Ясно и безоблачно+21°C59 %721 мм2.2 м/с5 %
    21:00Ясно и безоблачно+20°C63 %722 мм3.1 м/с5 %
  • 21июля
    Воскресенье
    +16°
    +28°
    Ясно и безоблачно
    ВремяПогодаТемператураВлажностьДавлениеВетер, м/сВероятность осадков
    00:00Ясно и безоблачно+17°C78 %722 мм4.4 м/с5 %
    03:00Ясно и безоблачно+14°C91 %721 мм4.1 м/с5 %
    06:00Практически безоблачно+14°C94 %721 мм3.8 м/с5 %
    09:00Ясно и безоблачно+17°C82 %723 мм3.2 м/с5 %
    12:00Ясно и безоблачно+23°C60 %723 мм2.5 м/с5 %
    15:00Ясно и безоблачно+27°C50 %721 мм1.0 м/с5 %
    18:00Ясно и безоблачно+23°C73 %721 мм2.9 м/с5 %
    21:00Ясно и безоблачно+21°C84 %721 мм2.6 м/с5 %
  • 22июля
    Понедельник
    +16°
    +29°
    Ясно и безоблачно
    ВремяПогодаТемператураВлажностьДавлениеВетер, м/сВероятность осадков
    00:00Ясно и безоблачно+18°C86 %722 мм2.7 м/с5 %
    03:00Ясно и безоблачно+17°C89 %721 мм2.5 м/с5 %
    06:00Практически безоблачно+17°C92 %722 мм2.1 м/с5 %
    09:00Ясно и безоблачно+20°C80 %724 мм1.8 м/с5 %
    12:00Ясно и безоблачно+26°C51 %724 мм0.4 м/с5 %
    15:00Ясно и безоблачно+28°C41 %722 мм1.1 м/с5 %
    18:00Ясно и безоблачно+24°C57 %722 мм2.6 м/с5 %
    21:00Ясно и безоблачно+21°C63 %722 мм2.4 м/с5 %
Мы используем cookies
Соглашаюсь